Ontario, CA (91764)

8:03 PM PDT on August 28, 2014 (GMT -0700)
Pennhill Estates | Change Station
CLOSE
Current Station
Personal Weather Station
Location: Upland, CA
Elevation: 1539 ft
Nearby Weather Stations

Elev 1539 ft 34.13 °N, 117.62 °W | Updated 4 minutes ago

Clear
Clear
82.8 °F
Feels Like 81 °F
N
1.0
Wind Variable Wind from NW
Gusts 1.0 mph

Today
High -- | Low -- °F
--% Chance of Precip.
Yesterday
High -- | Low -- °F
Precip. -- in
6:21 AM 7:21 PM
Waxing Crescent, 11% visible
Pressure 29.86 in
Visibility 10.0 miles
Clouds Clear
Heat Index 81 °F
Dew Point 48 °F
Humidity 30%
Rainfall 0.00 in
Snow Depth Not available.
UV 0 out of 12
Pollen 7.80 out of 12
Ozone Good
PM2.5 Moderate
Flu Activity Not available.
METAR KONT 290253Z 24008KT 10SM CLR 29/04 A2991 RMK AO2 SLP110 T02940044 53008

More Conditions Fewer Conditions

Pressure 29.86 in
Visibility 10.0 miles
Clouds Clear
Heat Index 81 °F
Dew Point 48 °F
Humidity 30%
Rainfall 0.00 in
Snow Depth Not available.
UV 0 out of 12
Pollen 7.80 out of 12
Ozone Good
PM2.5 Moderate
Flu Activity Not available.
METAR KONT 290253Z 24008KT 10SM CLR 29/04 A2991 RMK AO2 SLP110 T02940044 53008

More Conditions Fewer Conditions

10-Day Weather Forecast

Almanac

Astronomy

Aug. 28, 2014 Rise Set
Actual Time 6:21 AM PDT 7:21 PM PDT
Civil Twilight 5:55 AM PDT 7:47 PM PDT
Nautical Twilight 5:25 AM PDT 8:17 PM PDT
Astronomical Twilight 4:53 AM PDT 8:48 PM PDT
Moon 9:08 AM PDT (8/28) 8:58 PM PDT (8/28)
Length of Visible Light 13h 51m
Length of Day
13h 00m
Tomorrow will be 2m 0s shorter.
Waxing Crescent, 11% of the Moon is Illuminated
Today
Waxing Crescent
Sep 2
First Quarter
Sep 8
Full
Sep 15
Last Quarter
Sep 24
New

Today's Extremes

State Highs State Lows

Community

WunderPhotos

Upload Photos

1,748,141 photos uploaded!

Nearby

Air Quality

  Air Quality AQ Index Pollutant
Yesterday Good
PM10
Yesterday Moderate
OZONE
Current Moderate
PM2.5
Current Good
OZONE
Friday Good
PM10
Friday Moderate
OZONE
Friday Good
CO
Friday Good
NO2

Snow Depth

Station Depth Elevation
Leavitt Meadows 1 in 7200 ft
Blue Lakes 0 in 8000 ft
Hagan's Meadow 0 in 8000 ft
Rubicon #2 0 in 7500 ft
Adin Mountain 0 in 6200 ft

Earthquake Activity

City Distance Mag. Time & Date
San Fernando, California 46 miles 2.5 4:57 AM PDT
2014-08-26
Minimum magnitude displayed is 2.5.

Coastal Water Temperatures

Place Temperature
No Stations Reporting

Nearby Weather Stations